Home > Products > Valid Products > TAF

000
FTUS46 KSEW 312320
TAFSEA
TAF
KSEA 312320Z 0100/0206 31007KT P6SM SKC
     FM010300 01006KT P6SM SKC
     FM011900 32007KT P6SM SKC=



000
FTUS46 KSEW 312320
TAFBFI
TAF
KBFI 312320Z 0100/0124 31005KT P6SM SKC
     FM010300 00000KT P6SM SKC
     FM011900 30005KT P6SM SKC=



000
FTUS46 KSEW 312320
TAFCLM
TAF
KCLM 312320Z 0100/0124 29007KT P6SM SKC
     FM011000 27004KT P6SM SKC=



000
FTUS46 KSEW 312320
TAFHQM
TAF
KHQM 312320Z 0100/0124 24010KT P6SM SKC
     FM010600 24007KT 1SM BR OVC004
      TEMPO 0111/0115 1/4SM FG OVC002
     FM011700 27006KT 6SM HZ SCT005
     FM012100 25012KT P6SM SKC=



000
FTUS46 KSEW 312320
TAFBLI
TAF
KBLI 312320Z 0100/0124 27006KT P6SM SKC
     FM010200 00000KT P6SM SKC
     FM012000 25005KT P6SM SKC=



000
FTUS46 KSEW 312320
TAFPAE
TAF
KPAE 312320Z 0100/0124 29006KT P6SM SKC
     FM010600 01003KT P6SM SKC
     FM011900 30006KT P6SM SKC=



000
FTUS46 KSEW 312320
TAFOLM
TAF
KOLM 312320Z 0100/0124 35007KT P6SM SKC
     FM010500 VRB02KT P6SM SKC
     FM012000 36007KT P6SM SKC=



000
FTUS46 KSEW 312105 AAA
TAFSEA
TAF AMD
KSEA 312105Z 3121/0124 32008KT P6SM SKC
     FM010300 01006KT P6SM SKC
     FM011900 32007KT P6SM SKC=



000
FTUS46 KSEW 312105 AAA
TAFSEA
TAF AMD
KSEA 312105Z 3121/0124 32008KT P6SM SKC
     FM010300 01006KT P6SM SKC
     FM011900 32007KT P6SM SKC=



000
FTUS46 KSEW 311720
TAFOLM
TAF
KOLM 311720Z 3118/0118 06004KT P6SM SKC
     FM311900 36008KT P6SM SKC
     FM010500 VRB02KT P6SM SKC=



000
FTUS46 KSEW 311720
TAFSEA
TAF
KSEA 311720Z 3118/0124 05004KT P6SM SKC
     FM312100 29006KT P6SM SKC
     FM010300 01006KT P6SM SKC
     FM011900 32007KT P6SM SKC=



000
FTUS46 KSEW 311720
TAFBFI
TAF
KBFI 311720Z 3118/0118 33006KT P6SM SKC
     FM010300 00000KT P6SM SKC=



000
FTUS46 KSEW 311720
TAFCLM
TAF
KCLM 311720Z 3118/0118 VRB03KT P6SM SKC
     FM010100 29010KT P6SM SKC
     FM011000 27004KT P6SM SKC=



000
FTUS46 KSEW 311720
TAFBLI
TAF
KBLI 311720Z 3118/0118 16004KT P6SM SKC
     FM312000 26006KT P6SM SKC
     FM010200 00000KT P6SM SKC=



000
FTUS46 KSEW 311720
TAFHQM
TAF
KHQM 311720Z 3118/0118 19005KT 6SM HZ SKC
     FM312000 27012KT P6SM SKC
     FM010600 24007KT 1SM BR OVC004
      TEMPO 0111/0115 1/4SM FG OVC002
     FM011700 27006KT 6SM HZ SCT005=



000
FTUS46 KSEW 311720
TAFPAE
TAF
KPAE 311720Z 3118/0118 33006KT P6SM SKC
     FM010600 01003KT P6SM SKC=



000
FTUS46 KSEW 311303 AAA
TAFSEA
TAF AMD
KSEA 311303Z 3113/0118 01005KT P6SM SKC
     FM311800 31007KT P6SM SKC
     FM010300 01006KT P6SM SKC=



000
FTUS46 KSEW 311235 AAA
TAFHQM
TAF AMD
KHQM 311235Z 3113/0112 VRB04KT 6SM BR SCT005
      TEMPO 3113/3116 5SM BR BKN005
     FM311600 24008KT P6SM SKC
     FM312100 27011KT P6SM SKC
     FM010400 23006KT P6SM SKC
     FM010900 00000KT 5SM BR SKC=



000
FTUS46 KSEW 311235 AAA
TAFHQM
TAF AMD
KHQM 311235Z 3113/0112 VRB04KT 6SM BR SCT005
      TEMPO 3113/3116 5SM BR BKN005
     FM311600 24008KT P6SM SKC
     FM312100 27011KT P6SM SKC
     FM010400 23006KT P6SM SKC
     FM010900 00000KT 5SM BR SKC=



000
FTUS46 KSEW 311121
TAFBLI
TAF
KBLI 311121Z 3112/0112 00000KT P6SM SKC
     FM312000 26006KT P6SM SKC
     FM010200 00000KT P6SM SKC=



000
FTUS46 KSEW 311121
TAFBFI
TAF
KBFI 311121Z 3112/0112 00000KT P6SM SKC
     FM311800 30006KT P6SM SKC
     FM010300 00000KT P6SM SKC=



000
FTUS46 KSEW 311121
TAFCLM
TAF
KCLM 311121Z 3112/0112 00000KT P6SM SKC
     FM312300 30008KT P6SM SKC
     FM010900 31005KT P6SM SKC=



000
FTUS46 KSEW 311121
TAFSEA
TAF
KSEA 311121Z 3112/0118 02006KT P6SM SKC
     FM311800 31007KT P6SM SKC
     FM010300 01006KT P6SM SKC=



000
FTUS46 KSEW 311121
TAFPAE
TAF
KPAE 311121Z 3112/0112 00000KT P6SM SKC
     FM311800 32006KT P6SM SKC
     FM312300 35007KT P6SM SKC=



000
FTUS46 KSEW 311121
TAFHQM
TAF
KHQM 311121Z 3112/0112 18004KT P6SM SKC
      TEMPO 3112/3116 5SM BR SKC
     FM311800 24008KT P6SM SKC
     FM312100 27011KT P6SM SKC
     FM010400 23006KT P6SM SKC
     FM010900 00000KT 5SM BR SKC=



000
FTUS46 KSEW 311121
TAFOLM
TAF
KOLM 311121Z 3112/0112 00000KT P6SM SKC
     FM311900 36008KT P6SM SKC
     FM010300 02005KT P6SM SKC=



000
FTUS46 KSEW 310521
TAFCLM
TAF
KCLM 310521Z 3106/0106 27007KT P6SM SKC
     FM311200 VRB04KT P6SM SKC
     FM312300 30008KT P6SM SKC=



000
FTUS46 KSEW 310521
TAFSEA
TAF
KSEA 310521Z 3106/0112 01006KT P6SM SKC
     FM311200 VRB04KT P6SM SKC
     FM311800 31007KT P6SM SKC
     FM010300 01006KT P6SM SKC=



000
FTUS46 KSEW 310521
TAFOLM
TAF
KOLM 310521Z 3106/0106 00000KT P6SM SKC
     FM311900 36008KT P6SM SKC
     FM010300 02005KT P6SM SKC=



000
FTUS46 KSEW 310521
TAFBLI
TAF
KBLI 310521Z 3106/0106 18003KT P6SM SKC
     FM312000 26006KT P6SM SKC
     FM010200 00000KT P6SM SKC=



000
FTUS46 KSEW 310521
TAFBFI
TAF
KBFI 310521Z 3106/0106 00000KT P6SM SKC
     FM311800 30006KT P6SM SKC
     FM010300 00000KT P6SM SKC=



000
FTUS46 KSEW 310521
TAFPAE
TAF
KPAE 310521Z 3106/0106 02007KT P6SM SKC
     FM311800 32006KT P6SM SKC
     FM312300 35007KT P6SM SKC=



000
FTUS46 KSEW 310521
TAFCLM
TAF
KCLM 310521Z 3106/0106 27007KT P6SM SKC
     FM311200 VRB04KT P6SM SKC
     FM312300 30008KT P6SM SKC=



000
FTUS46 KSEW 310521
TAFSEA
TAF
KSEA 310521Z 3106/0112 01006KT P6SM SKC
     FM311200 VRB04KT P6SM SKC
     FM311800 31007KT P6SM SKC
     FM010300 01006KT P6SM SKC=



000
FTUS46 KSEW 310521
TAFOLM
TAF
KOLM 310521Z 3106/0106 00000KT P6SM SKC
     FM311900 36008KT P6SM SKC
     FM010300 02005KT P6SM SKC=



000
FTUS46 KSEW 310521
TAFBLI
TAF
KBLI 310521Z 3106/0106 18003KT P6SM SKC
     FM312000 26006KT P6SM SKC
     FM010200 00000KT P6SM SKC=



000
FTUS46 KSEW 310521
TAFBFI
TAF
KBFI 310521Z 3106/0106 00000KT P6SM SKC
     FM311800 30006KT P6SM SKC
     FM010300 00000KT P6SM SKC=



000
FTUS46 KSEW 310521
TAFHQM
TAF
KHQM 310521Z 3106/0106 23005KT P6SM SKC
     FM310900 VRB03KT P6SM SKC
      TEMPO 3110/3114 4SM BR SKC
     FM311800 24008KT P6SM SKC
     FM312100 27011KT P6SM SKC
     FM010400 23006KT P6SM SKC=



000
FTUS46 KSEW 310521
TAFPAE
TAF
KPAE 310521Z 3106/0106 02007KT P6SM SKC
     FM311800 32006KT P6SM SKC
     FM312300 35007KT P6SM SKC=



000
FTUS46 KSEW 310521
TAFHQM
TAF
KHQM 310521Z 3106/0106 23005KT P6SM SKC
     FM310900 VRB03KT P6SM SKC
      TEMPO 3110/3114 4SM BR SKC
     FM311800 24008KT P6SM SKC
     FM312100 27011KT P6SM SKC
     FM010400 23006KT P6SM SKC=



000
FTUS46 KSEW 310301 AAA
TAFSEA
TAF AMD
KSEA 310301Z 3103/0106 35008KT P6SM SKC
     FM311200 VRB04KT P6SM SKC
     FM311800 31007KT P6SM SKC
     FM010300 01006KT P6SM SKC=



000
FTUS46 KSEW 310001 AAA
TAFHQM
TAF AMD
KHQM 310001Z 3100/3124 25012KT P6SM SKC
     FM310100 27008KT P6SM SKC
     FM310400 VRB03KT P6SM SKC
     FM310900 VRB03KT 5SM BR SKC
     FM311600 VRB03KT P6SM SKC=



000
FTUS46 KSEW 310001 AAA
TAFHQM
TAF AMD
KHQM 310001Z 3100/3124 25012KT P6SM SKC
     FM310100 27008KT P6SM SKC
     FM310400 VRB03KT P6SM SKC
     FM310900 VRB03KT 5SM BR SKC
     FM311600 VRB03KT P6SM SKC=



000
FTUS46 KSEW 302327
TAFBFI
TAF
KBFI 302327Z 3100/3124 31008KT P6SM SKC
     FM310300 VRB03KT P6SM SKC
     FM311800 30006KT P6SM SKC=



000
FTUS46 KSEW 302327
TAFBLI
TAF
KBLI 302327Z 3100/3124 VRB03KT P6SM SKC
     FM312000 24006KT P6SM SKC=



000
FTUS46 KSEW 302327
TAFPAE
TAF
KPAE 302327Z 3100/3124 34008KT P6SM SKC
     FM310300 VRB03KT P6SM SKC
     FM311800 32006KT P6SM SKC=



000
FTUS46 KSEW 302327
TAFOLM
TAF
KOLM 302327Z 3100/3124 36008KT P6SM SKC
     FM310300 VRB03KT P6SM SKC
     FM311900 35006KT P6SM SKC=



000
FTUS46 KSEW 302327
TAFHQM
TAF
KHQM 302327Z 3100/3124 23012KT P6SM SKC
     FM310100 26008KT P6SM SKC
     FM310400 VRB03KT P6SM SKC
     FM310900 VRB03KT 5SM BR SKC
     FM311600 VRB03KT P6SM SKC=



000
FTUS46 KSEW 302327
TAFCLM
TAF
KCLM 302327Z 3100/3124 02006KT P6SM SKC
     FM310100 28006KT P6SM SKC
     FM311200 VRB03KT P6SM SKC
     FM311800 02006KT P6SM SKC=



000
FTUS46 KSEW 302327
TAFSEA
TAF
KSEA 302327Z 3100/0106 34009KT P6SM SKC
     FM310300 02007KT P6SM SKC
     FM311200 VRB04KT P6SM SKC
     FM311800 31007KT P6SM SKC
     FM010300 01006KT P6SM SKC=



000
FTUS46 KSEW 302327
TAFHQM
TAF
KHQM 302327Z 3100/3124 23012KT P6SM SKC
     FM310100 26008KT P6SM SKC
     FM310400 VRB03KT P6SM SKC
     FM310900 VRB03KT 5SM BR SKC
     FM311600 VRB03KT P6SM SKC=



000
FTUS46 KSEW 302327
TAFCLM
TAF
KCLM 302327Z 3100/3124 02006KT P6SM SKC
     FM310100 28006KT P6SM SKC
     FM311200 VRB03KT P6SM SKC
     FM311800 02006KT P6SM SKC=



000
FTUS46 KSEW 302327
TAFSEA
TAF
KSEA 302327Z 3100/0106 34009KT P6SM SKC
     FM310300 02007KT P6SM SKC
     FM311200 VRB04KT P6SM SKC
     FM311800 31007KT P6SM SKC
     FM010300 01006KT P6SM SKC=



000
FTUS46 KSEW 302327
TAFOLM
TAF
KOLM 302327Z 3100/3124 36008KT P6SM SKC
     FM310300 VRB03KT P6SM SKC
     FM311900 35006KT P6SM SKC=



000
FTUS46 KSEW 302327
TAFBFI
TAF
KBFI 302327Z 3100/3124 31008KT P6SM SKC
     FM310300 VRB03KT P6SM SKC
     FM311800 30006KT P6SM SKC=



000
FTUS46 KSEW 302327
TAFPAE
TAF
KPAE 302327Z 3100/3124 34008KT P6SM SKC
     FM310300 VRB03KT P6SM SKC
     FM311800 32006KT P6SM SKC=



000
FTUS46 KSEW 302327
TAFBLI
TAF
KBLI 302327Z 3100/3124 VRB03KT P6SM SKC
     FM312000 24006KT P6SM SKC=



000
FTUS46 KSEW 302100 AAA
TAFSEA
TAF AMD
KSEA 302100Z 3021/3124 34011KT P6SM SKC
     FM310300 01008KT P6SM SKC
     FM311200 VRB04KT P6SM SKC
     FM311800 32006KT P6SM SKC=



000
FTUS46 KSEW 302100 AAA
TAFPAE
TAF AMD
KPAE 302100Z 3021/3118 34008KT P6SM SKC
     FM310300 VRB03KT P6SM SKC=



000
FTUS46 KSEW 302100 AAA
TAFPAE
TAF AMD
KPAE 302100Z 3021/3118 34008KT P6SM SKC
     FM310300 VRB03KT P6SM SKC=



000
FTUS46 KSEW 301740
TAFOLM
TAF
KOLM 301740Z 3018/3118 02009KT P6SM SKC
     FM310300 VRB03KT P6SM SKC=



000
FTUS46 KSEW 301740
TAFOLM
TAF
KOLM 301740Z 3018/3118 02009KT P6SM SKC
     FM310300 VRB03KT P6SM SKC=



000
FTUS46 KSEW 301740
TAFHQM
TAF
KHQM 301740Z 3018/3118 21006KT P6SM SKC
     FM301900 24012KT P6SM SKC
     FM310100 27008KT P6SM SKC
     FM310400 VRB03KT P6SM SKC=



000
FTUS46 KSEW 301740
TAFBLI
TAF
KBLI 301740Z 3018/3118 02004KT P6SM SKC
     FM302100 28006KT P6SM SKC
     FM310100 VRB03KT P6SM SKC=



000
FTUS46 KSEW 301740
TAFSEA
TAF
KSEA 301740Z 3018/3124 36009KT P6SM SKC
     FM302000 33011KT P6SM SKC
     FM310300 01008KT P6SM SKC
     FM311200 VRB04KT P6SM SKC
     FM311800 32006KT P6SM SKC=



000
FTUS46 KSEW 301740
TAFCLM
TAF
KCLM 301740Z 3018/3118 08006KT P6SM SKC
     FM302100 03006KT P6SM SKC
     FM310100 29006KT P6SM SKC
     FM310600 VRB03KT P6SM SKC=



000
FTUS46 KSEW 301740
TAFPAE
TAF
KPAE 301740Z 3018/3118 35007KT P6SM SKC
     FM310300 VRB03KT P6SM SKC=



000
FTUS46 KSEW 301740
TAFBFI
TAF
KBFI 301740Z 3018/3118 31008KT P6SM SKC
     FM310300 VRB03KT P6SM SKC=



000
FTUS46 KSEW 301520 AAA
TAFSEA
TAF AMD
KSEA 301520Z 3015/3118 01008KT P6SM SKC
     FM301800 33011KT P6SM SKC
     FM310300 02008KT P6SM SKC=



000
FTUS46 KSEW 301411 AAA
TAFHQM
TAF AMD
KHQM 301411Z 3014/3112 00000KT 6SM BR SKC
     FM301600 VRB05KT P6SM SKC
     FM301800 24012KT P6SM SKC
     FM310100 27008KT P6SM SKC
     FM310400 VRB03KT P6SM SKC=



000
FTUS46 KSEW 301411 AAA
TAFHQM
TAF AMD
KHQM 301411Z 3014/3112 00000KT 6SM BR SKC
     FM301600 VRB05KT P6SM SKC
     FM301800 24012KT P6SM SKC
     FM310100 27008KT P6SM SKC
     FM310400 VRB03KT P6SM SKC=



000
FTUS46 KSEW 301122
TAFSEA
TAF
KSEA 301122Z 3012/3118 01005KT P6SM SKC
     FM301800 33011KT P6SM SKC
     FM310300 02008KT P6SM SKC=



000
FTUS46 KSEW 301122
TAFHQM
TAF
KHQM 301122Z 3012/3112 00000KT P6SM SKC
      TEMPO 3012/3015 4SM BR
     FM301600 23005KT P6SM SKC
     FM302000 25012KT P6SM SKC
     FM310300 24007KT P6SM SKC=



000
FTUS46 KSEW 301122
TAFCLM
TAF
KCLM 301122Z 3012/3112 00000KT P6SM SKC
     FM301700 07006KT P6SM SKC
     FM302200 31007KT P6SM SKC=



000
FTUS46 KSEW 301122
TAFSEA
TAF
KSEA 301122Z 3012/3118 01005KT P6SM SKC
     FM301800 33011KT P6SM SKC
     FM310300 02008KT P6SM SKC=



000
FTUS46 KSEW 301122
TAFPAE
TAF
KPAE 301122Z 3012/3112 36006KT P6SM SKC
     FM301800 34008KT P6SM SKC
     FM310400 01006KT P6SM SKC=



000
FTUS46 KSEW 301122
TAFOLM
TAF
KOLM 301122Z 3012/3112 00000KT P6SM SKC
     FM301800 02008KT P6SM SKC
     FM310500 00000KT P6SM SKC=



000
FTUS46 KSEW 301122
TAFBFI
TAF
KBFI 301122Z 3012/3112 00000KT P6SM SKC
     FM301800 31008KT P6SM SKC
     FM310400 30004KT P6SM SKC=



000
FTUS46 KSEW 301122
TAFPAE
TAF
KPAE 301122Z 3012/3112 36006KT P6SM SKC
     FM301800 34008KT P6SM SKC
     FM310400 01006KT P6SM SKC=



000
FTUS46 KSEW 301122
TAFHQM
TAF
KHQM 301122Z 3012/3112 00000KT P6SM SKC
      TEMPO 3012/3015 4SM BR
     FM301600 23005KT P6SM SKC
     FM302000 25012KT P6SM SKC
     FM310300 24007KT P6SM SKC=



000
FTUS46 KSEW 301122
TAFBLI
TAF
KBLI 301122Z 3012/3112 00000KT P6SM SKC
     FM302100 29007KT P6SM SKC
     FM310300 00000KT P6SM SKC=



000
FTUS46 KSEW 301122
TAFOLM
TAF
KOLM 301122Z 3012/3112 00000KT P6SM SKC
     FM301800 02008KT P6SM SKC
     FM310500 00000KT P6SM SKC=



000
FTUS46 KSEW 301122
TAFCLM
TAF
KCLM 301122Z 3012/3112 00000KT P6SM SKC
     FM301700 07006KT P6SM SKC
     FM302200 31007KT P6SM SKC=



000
FTUS46 KSEW 301122
TAFBFI
TAF
KBFI 301122Z 3012/3112 00000KT P6SM SKC
     FM301800 31008KT P6SM SKC
     FM310400 30004KT P6SM SKC=



000
FTUS46 KSEW 301122
TAFBLI
TAF
KBLI 301122Z 3012/3112 00000KT P6SM SKC
     FM302100 29007KT P6SM SKC
     FM310300 00000KT P6SM SKC=



000
FTUS46 KSEW 300903 AAA
TAFSEA
TAF AMD
KSEA 300903Z 3009/3112 02009KT P6SM SKC
     FM301200 02006KT P6SM SKC
     FM301800 33011KT P6SM SKC
     FM310300 02008KT P6SM SKC=



000
FTUS46 KSEW 300903 AAA
TAFSEA
TAF AMD
KSEA 300903Z 3009/3112 02009KT P6SM SKC
     FM301200 02006KT P6SM SKC
     FM301800 33011KT P6SM SKC
     FM310300 02008KT P6SM SKC=



000
FTUS46 KSEW 300522
TAFBLI
TAF
KBLI 300522Z 3006/3106 00000KT P6SM SKC
     FM302100 29007KT P6SM SKC
     FM310300 00000KT P6SM SKC=



000
FTUS46 KSEW 300522
TAFPAE
TAF
KPAE 300522Z 3006/3106 01006KT P6SM SKC
     FM301800 34008KT P6SM SKC
     FM310400 01006KT P6SM SKC=



000
FTUS46 KSEW 300522
TAFBFI
TAF
KBFI 300522Z 3006/3106 00000KT P6SM SKC
     FM301800 31008KT P6SM SKC
     FM310400 30004KT P6SM SKC=



000
FTUS46 KSEW 300522
TAFSEA
TAF
KSEA 300522Z 3006/3112 36009KT P6SM SKC
     FM301200 02006KT P6SM SKC
     FM301800 33011KT P6SM SKC
     FM310300 02008KT P6SM SKC=



000
FTUS46 KSEW 300522
TAFHQM
TAF
KHQM 300522Z 3006/3106 26006KT P6SM SKC
     FM301200 04005KT P6SM VCFG SKC
     FM301600 23005KT P6SM SKC
     FM302000 25012KT P6SM SKC
     FM310300 24007KT P6SM SKC=



000
FTUS46 KSEW 300522
TAFCLM
TAF
KCLM 300522Z 3006/3106 28005KT P6SM SKC
     FM301200 VRB03KT P6SM SKC
     FM301700 07006KT P6SM SKC
     FM302200 31007KT P6SM SKC=



000
FTUS46 KSEW 300522
TAFOLM
TAF
KOLM 300522Z 3006/3106 00000KT P6SM SKC
     FM301800 02008KT P6SM SKC
     FM310500 00000KT P6SM SKC=



000
FTUS46 KSEW 300522
TAFBFI
TAF
KBFI 300522Z 3006/3106 00000KT P6SM SKC
     FM301800 31008KT P6SM SKC
     FM310400 30004KT P6SM SKC=



000
FTUS46 KSEW 300522
TAFSEA
TAF
KSEA 300522Z 3006/3112 36009KT P6SM SKC
     FM301200 02006KT P6SM SKC
     FM301800 33011KT P6SM SKC
     FM310300 02008KT P6SM SKC=



000
FTUS46 KSEW 300522
TAFBLI
TAF
KBLI 300522Z 3006/3106 00000KT P6SM SKC
     FM302100 29007KT P6SM SKC
     FM310300 00000KT P6SM SKC=



000
FTUS46 KSEW 300522
TAFHQM
TAF
KHQM 300522Z 3006/3106 26006KT P6SM SKC
     FM301200 04005KT P6SM VCFG SKC
     FM301600 23005KT P6SM SKC
     FM302000 25012KT P6SM SKC
     FM310300 24007KT P6SM SKC=



000
FTUS46 KSEW 300522
TAFCLM
TAF
KCLM 300522Z 3006/3106 28005KT P6SM SKC
     FM301200 VRB03KT P6SM SKC
     FM301700 07006KT P6SM SKC
     FM302200 31007KT P6SM SKC=



000
FTUS46 KSEW 300522
TAFOLM
TAF
KOLM 300522Z 3006/3106 00000KT P6SM SKC
     FM301800 02008KT P6SM SKC
     FM310500 00000KT P6SM SKC=



000
FTUS46 KSEW 300522
TAFPAE
TAF
KPAE 300522Z 3006/3106 01006KT P6SM SKC
     FM301800 34008KT P6SM SKC
     FM310400 01006KT P6SM SKC=



000
FTUS46 KSEW 300301 AAA
TAFSEA
TAF AMD
KSEA 300301Z 3003/3106 34010KT P6SM SKC
     FM301200 02006KT P6SM SKC
     FM301800 33011KT P6SM SKC
     FM310300 02008KT P6SM SKC=



000
FTUS46 KSEW 292336
TAFPAE
TAF
KPAE 292336Z 3000/3024 35008KT P6SM FEW250
     FM300300 02004KT P6SM SKC
     FM301800 33007KT P6SM SKC=



000
FTUS46 KSEW 292336
TAFCLM
TAF
KCLM 292336Z 3000/3024 36006KT P6SM SKC
     FM300300 28006KT P6SM SKC
     FM301200 VRB03KT P6SM SKC
     FM301700 07006KT P6SM SKC
     FM302200 03005KT P6SM SKC=



000
FTUS46 KSEW 292336
TAFHQM
TAF
KHQM 292336Z 3000/3024 24010KT P6SM SKC
     FM300300 VRB03KT P6SM SKC
     FM301200 04005KT P6SM VCFG SKC
     FM301600 VRB05KT P6SM SKC
     FM301800 24012KT P6SM SKC=



000
FTUS46 KSEW 292336
TAFSEA
TAF
KSEA 292336Z 3000/3106 34013KT P6SM SKC
     FM300300 02010KT P6SM SKC
     FM301200 02006KT P6SM SKC
     FM301800 33011KT P6SM SKC
     FM310300 02008KT P6SM SKC=



000
FTUS46 KSEW 292336
TAFBFI
TAF
KBFI 292336Z 3000/3024 32009KT P6SM FEW250
     FM300300 VRB03KT P6SM SKC
     FM301800 31008KT P6SM SKC=



000
FTUS46 KSEW 292336
TAFBLI
TAF
KBLI 292336Z 3000/3024 VRB03KT P6SM SKC
     FM302100 25006KT P6SM SKC=



000
FTUS46 KSEW 292336
TAFOLM
TAF
KOLM 292336Z 3000/3024 02008KT P6SM SKC
     FM300300 VRB03KT P6SM SKC
     FM301800 02008KT P6SM SKC=



000
FTUS46 KSEW 292321 AAA
TAFHQM
TAF AMD
KHQM 292321Z 2923/3018 24013KT P6SM SKC
     FM300000 28008KT P6SM SKC
     FM300300 VRB03KT P6SM SKC
     FM301200 04005KT P6SM VCFG SKC=



000
FTUS46 KSEW 292102 AAA
TAFSEA
TAF AMD
KSEA 292102Z 2921/3024 34013KT P6SM SKC
      TEMPO 2921/2924 34013G20KT
     FM300300 02010KT P6SM SKC
     FM301200 02006KT P6SM SKC
     FM301800 33011KT P6SM SKC=



000
FTUS46 KSEW 291723
TAFSEA
TAF
KSEA 291723Z 2918/3024 01009KT P6SM FEW250
     FM291900 33013KT P6SM SKC
      TEMPO 2920/2924 33013G20KT
     FM300300 02010KT P6SM SKC
     FM301200 02006KT P6SM SKC
     FM301800 33011KT P6SM SKC=



000
FTUS46 KSEW 291723
TAFHQM
TAF
KHQM 291723Z 2918/3018 21008KT P6SM SKC
     FM291900 25013KT P6SM SKC
     FM300000 28008KT P6SM SKC
     FM300300 VRB03KT P6SM SKC
     FM301200 04005KT P6SM VCFG SKC=



000
FTUS46 KSEW 291723
TAFBLI
TAF
KBLI 291723Z 2918/3018 34006KT P6SM SCT250
     FM292100 29006KT P6SM FEW250
     FM300000 VRB03KT P6SM SKC=



000
FTUS46 KSEW 291723
TAFCLM
TAF
KCLM 291723Z 2918/3018 07007KT P6SM FEW250
     FM292100 04007KT P6SM SKC
     FM300000 35006KT P6SM SKC
     FM300300 28006KT P6SM SKC
     FM301200 VRB03KT P6SM SKC=



000
FTUS46 KSEW 291723
TAFPAE
TAF
KPAE 291723Z 2918/3018 34008KT P6SM FEW250
     FM300300 02004KT P6SM SKC=



000
FTUS46 KSEW 291723
TAFBFI
TAF
KBFI 291723Z 2918/3018 32009KT P6SM FEW250
     FM300300 VRB03KT P6SM SKC=



000
FTUS46 KSEW 291723
TAFOLM
TAF
KOLM 291723Z 2918/3018 02010KT P6SM SKC
     FM300300 VRB03KT P6SM SKC=



000
FTUS46 KSEW 291504 AAA
TAFSEA
TAF AMD
KSEA 291504Z 2915/3018 34007KT P6SM FEW250
     FM291900 34013KT P6SM SKC
     FM300300 02008KT P6SM SKC=



000
FTUS46 KSEW 291504 AAA
TAFSEA
TAF AMD
KSEA 291504Z 2915/3018 34007KT P6SM FEW250
     FM291900 34013KT P6SM SKC
     FM300300 02008KT P6SM SKC=



000
FTUS46 KSEW 291456 AAA
TAFHQM
TAF AMD
KHQM 291456Z 2915/3012 VRB03KT P6SM SKC
     FM291900 27010KT P6SM SKC
     FM300700 VRB03KT P6SM SKC=



000
FTUS46 KSEW 291456 AAA
TAFHQM
TAF AMD
KHQM 291456Z 2915/3012 VRB03KT P6SM SKC
     FM291900 27010KT P6SM SKC
     FM300700 VRB03KT P6SM SKC=



000
FTUS46 KSEW 291126
TAFCLM
TAF
KCLM 291126Z 2912/3012 VRB03KT P6SM SKC
      TEMPO 2912/2914 4SM BR SCT001
     FM291800 31008KT P6SM SCT250
     FM300900 VRB03KT P6SM SCT250=



000
FTUS46 KSEW 291126
TAFBLI
TAF
KBLI 291126Z 2912/3012 17004KT P6SM SCT250
     FM292200 29006KT P6SM SCT250
     FM300200 17006KT P6SM SCT250=



000
FTUS46 KSEW 291126
TAFHQM
TAF
KHQM 291126Z 2912/3012 VRB03KT 4SM BR SKC
     FM291500 VRB03KT P6SM SKC
     FM291900 27010KT P6SM SKC
     FM300700 VRB03KT P6SM SKC=



000
FTUS46 KSEW 291126
TAFPAE
TAF
KPAE 291126Z 2912/3012 02006KT P6SM SKC
     FM291800 34007KT P6SM SKC
     FM300800 02006KT P6SM SKC=



000
FTUS46 KSEW 291126
TAFSEA
TAF
KSEA 291126Z 2912/3018 01008KT P6SM SKC=



000
FTUS46 KSEW 291126
TAFOLM
TAF
KOLM 291126Z 2912/3012 VRB03KT P6SM SKC
      TEMPO 2912/2914 5SM BR
     FM291800 02008KT P6SM SKC
     FM300600 00000KT P6SM SKC=



000
FTUS46 KSEW 291126
TAFBFI
TAF
KBFI 291126Z 2912/3012 VRB03KT P6SM SKC
     FM291800 32008KT P6SM SKC
     FM300600 VRB03KT P6SM SKC=



000
FTUS46 KSEW 290905 AAA
TAFSEA
TAF AMD
KSEA 290905Z 2909/3012 01008KT P6SM SCT250=



000
FTUS46 KSEW 290536
TAFHQM
TAF
KHQM 290536Z 2906/3006 30004KT P6SM SCT250
     FM291200 VRB03KT 4SM BR SCT250
     FM291500 VRB03KT P6SM SCT250
     FM291900 27010KT P6SM SCT250=



000
FTUS46 KSEW 290536
TAFPAE
TAF
KPAE 290536Z 2906/3006 02006KT P6SM SCT250
     FM291800 34007KT P6SM SCT250=



000
FTUS46 KSEW 290536
TAFBFI
TAF
KBFI 290536Z 2906/3006 VRB03KT P6SM SCT250
     FM291800 32008KT P6SM SCT250=



000
FTUS46 KSEW 290536
TAFSEA
TAF
KSEA 290536Z 2906/3012 32006KT P6SM SCT250
     FM290900 01008KT P6SM SCT250=



000
FTUS46 KSEW 290536
TAFCLM
TAF
KCLM 290536Z 2906/3006 29010KT P6SM SCT250
     FM290900 27005KT P6SM SCT250
     FM291800 32007KT P6SM SCT250=



000
FTUS46 KSEW 290536
TAFBLI
TAF
KBLI 290536Z 2906/3006 17004KT P6SM SCT250
     FM292200 29006KT P6SM SCT250
     FM300200 17006KT P6SM SCT250=



000
FTUS46 KSEW 290536
TAFOLM
TAF
KOLM 290536Z 2906/3006 VRB03KT P6SM SCT250
     FM291800 02008KT P6SM SCT250=



000
FTUS46 KSEW 282346
TAFSEA
TAF
KSEA 282346Z 2900/3006 01010KT P6SM SCT250
     FM290400 02006KT P6SM SCT250
     FM291800 35010KT P6SM SCT250
     FM300000 02007KT P6SM SCT250=



000
FTUS46 KSEW 282346
TAFSEA
TAF
KSEA 282346Z 2900/3006 01010KT P6SM SCT250
     FM290400 02006KT P6SM SCT250
     FM291800 35010KT P6SM SCT250
     FM300000 02007KT P6SM SCT250=



000
FTUS46 KSEW 282346
TAFBFI
TAF
KBFI 282346Z 2900/2924 30008KT P6SM SCT250
     FM290300 VRB03KT P6SM SCT250
     FM291800 32008KT P6SM SCT250=



000
FTUS46 KSEW 282346
TAFPAE
TAF
KPAE 282346Z 2900/2924 36007KT P6SM SCT250
     FM290300 02004KT P6SM SCT250
     FM291400 02004KT P6SM FEW007 SCT250
     FM291800 34007KT P6SM SCT250=



000
FTUS46 KSEW 282346
TAFCLM
TAF
KCLM 282346Z 2900/2924 29009KT P6SM SCT250
     FM290800 27005KT P6SM FEW011 SCT250
     FM291800 35007KT P6SM SCT250=



000
FTUS46 KSEW 282346
TAFBLI
TAF
KBLI 282346Z 2900/2924 VRB04KT P6SM SCT250
     FM290200 VRB03KT P6SM SCT250
     FM291500 17008KT P6SM BKN250
     FM292000 21006KT P6SM BKN250=



000
FTUS46 KSEW 282346
TAFOLM
TAF
KOLM 282346Z 2900/2924 03007KT P6SM FEW250
     FM290300 VRB03KT P6SM FEW250
     FM291800 02008KT P6SM FEW250=



000
FTUS46 KSEW 282346
TAFHQM
TAF
KHQM 282346Z 2900/2924 25012KT P6SM FEW250
     FM290300 29005KT P6SM FEW250
     FM291200 VRB03KT 5SM BR SCT009
      TEMPO 2912/2916 2SM BR BKN009
     FM291700 VRB05KT P6SM SCT015
     FM291900 25013KT P6SM FEW250=



000
FTUS46 KSEW 282346
TAFBLI
TAF
KBLI 282346Z 2900/2924 VRB04KT P6SM SCT250
     FM290200 VRB03KT P6SM SCT250
     FM291500 17008KT P6SM BKN250
     FM292000 21006KT P6SM BKN250=



000
FTUS46 KSEW 282346
TAFPAE
TAF
KPAE 282346Z 2900/2924 36007KT P6SM SCT250
     FM290300 02004KT P6SM SCT250
     FM291400 02004KT P6SM FEW007 SCT250
     FM291800 34007KT P6SM SCT250=



000
FTUS46 KSEW 282346
TAFBFI
TAF
KBFI 282346Z 2900/2924 30008KT P6SM SCT250
     FM290300 VRB03KT P6SM SCT250
     FM291800 32008KT P6SM SCT250=



000
FTUS46 KSEW 282346
TAFHQM
TAF
KHQM 282346Z 2900/2924 25012KT P6SM FEW250
     FM290300 29005KT P6SM FEW250
     FM291200 VRB03KT 5SM BR SCT009
      TEMPO 2912/2916 2SM BR BKN009
     FM291700 VRB05KT P6SM SCT015
     FM291900 25013KT P6SM FEW250=



000
FTUS46 KSEW 282346
TAFOLM
TAF
KOLM 282346Z 2900/2924 03007KT P6SM FEW250
     FM290300 VRB03KT P6SM FEW250
     FM291800 02008KT P6SM FEW250=



000
FTUS46 KSEW 282346
TAFCLM
TAF
KCLM 282346Z 2900/2924 29009KT P6SM SCT250
     FM290800 27005KT P6SM FEW011 SCT250
     FM291800 35007KT P6SM SCT250=



    US Dept of Commerce
    National Oceanic and Atmospheric Administration
    National Weather Service
    1325 East West Highway
    Silver Spring, MD 20910
    Page Author: NWS Internet Services Team
Disclaimer
Information Quality
Credits
Glossary
Privacy Policy
Freedom of Information Act (FOIA)
About Us
Career Opportunities